Time;durP1;ratioP1;P1;durP2;ratioP2;P2;SDS_P1;SDS_P2;PMS_P1;PMS_P2;Temp;Humidity;BMP_temperature;BMP_pressure;BME280_temperature;BME280_humidity;BME280_pressure;Samples;Min_cycle;Max_cycle;Signal;HPM_P1;HPM_P2
2023/08/13 00:01:02;;;;;;;;;;;19.30;99.90;;;;;;5071562;28;20038;-71
2023/08/13 00:03:28;;;;;;;;;;;19.30;99.90;;;;;;5071749;28;19911;-71
2023/08/13 00:05:53;;;;;;;;;;;19.30;99.90;;;;;;5071381;28;20385;-71
2023/08/13 00:08:19;;;;;;;;;;;19.30;99.90;;;;;;5071266;28;19912;-71
2023/08/13 00:10:44;;;;;;;;;;;19.20;99.90;;;;;;5070440;28;19919;-71
2023/08/13 00:13:10;;;;;;;;;;;19.20;99.90;;;;;;5071115;28;20223;-71
2023/08/13 00:15:36;;;;;;;;;;;19.30;99.90;;;;;;5071576;28;19908;-70
2023/08/13 00:18:02;;;;;;;;;;;19.30;99.90;;;;;;5070080;28;19908;-71
2023/08/13 00:20:27;;;;;;;;;;;19.20;99.90;;;;;;5069890;28;19948;-70
2023/08/13 00:22:53;;;;;;;;;;;19.30;99.90;;;;;;5069890;28;19916;-70
2023/08/13 00:25:18;;;;;;;;;;;19.30;99.90;;;;;;5070931;28;19909;-71
2023/08/13 00:27:44;;;;;;;;;;;19.30;99.90;;;;;;5070332;28;19905;-71
2023/08/13 00:30:09;;;;;;;;;;;19.30;99.90;;;;;;5070844;28;19916;-71
2023/08/13 00:32:35;;;;;;;;;;;19.30;99.90;;;;;;5069718;28;19908;-71
2023/08/13 00:35:01;;;;;;;;;;;19.30;99.90;;;;;;5070673;28;19932;-71
2023/08/13 00:37:26;;;;;;;;;;;19.30;99.90;;;;;;5071075;28;20273;-71
2023/08/13 00:39:53;;;;;;;;;;;19.30;99.90;;;;;;5071031;28;19959;-70
2023/08/13 00:42:18;;;;;;;;;;;19.30;99.90;;;;;;5071250;28;19987;-70
2023/08/13 00:44:45;;;;;;;;;;;19.30;99.90;;;;;;5071049;28;19908;-71
2023/08/13 00:47:10;;;;;;;;;;;19.30;99.90;;;;;;5069923;28;19938;-71
2023/08/13 00:49:36;;;;;;;;;;;19.30;99.90;;;;;;5070670;28;19916;-71
2023/08/13 00:52:01;;;;;;;;;;;19.30;99.90;;;;;;5070677;28;20338;-71
2023/08/13 00:54:27;;;;;;;;;;;19.30;99.90;;;;;;5070103;28;20178;-71
2023/08/13 00:56:53;;;;;;;;;;;19.30;99.90;;;;;;5071519;28;19912;-71
2023/08/13 00:59:19;;;;;;;;;;;19.30;99.90;;;;;;5071648;28;20258;-70
2023/08/13 01:01:45;;;;;;;;;;;19.30;99.90;;;;;;5070576;28;19909;-70
2023/08/13 01:04:10;;;;;;;;;;;19.30;99.90;;;;;;5071408;28;19973;-71
2023/08/13 01:06:39;;;;;;;;;;;19.30;99.90;;;;;;5070144;28;19909;-71
2023/08/13 01:09:06;;;;;;;;;;;19.30;99.90;;;;;;5074734;28;19969;-71
2023/08/13 01:11:47;;;;;;;;;;;19.30;99.90;;;;;;5073270;28;20314;-71
2023/08/13 01:14:38;;;;;;;;;;;19.30;99.90;;;;;;5074503;28;19916;-71
2023/08/13 01:17:06;;;;;;;;;;;19.20;99.90;;;;;;5070233;28;19908;-71
2023/08/13 01:19:32;;;;;;;;;;;19.20;99.90;;;;;;5073273;28;19909;-71
2023/08/13 01:21:57;;;;;;;;;;;19.20;99.90;;;;;;5075108;28;19916;-71
2023/08/13 01:24:23;;;;;;;;;;;19.20;99.90;;;;;;5074307;28;20324;-70
2023/08/13 01:26:58;;;;;;;;;;;19.20;99.90;;;;;;5074224;28;19909;-72
2023/08/13 01:29:53;;;;;;;;;;;19.10;99.90;;;;;;5074107;28;19912;-70
2023/08/13 01:32:21;;;;;;;;;;;19.10;99.90;;;;;;5060157;28;19934;-70
2023/08/13 01:34:47;;;;;;;;;;;19.10;99.90;;;;;;5073659;28;20249;-70
2023/08/13 01:37:13;;;;;;;;;;;19.10;99.90;;;;;;5053467;28;19913;-71
2023/08/13 01:39:39;;;;;;;;;;;19.10;99.90;;;;;;5053027;28;19908;-70
2023/08/13 01:42:06;;;;;;;;;;;19.10;99.90;;;;;;5055246;28;19952;-70
2023/08/13 01:44:32;;;;;;;;;;;19.10;99.90;;;;;;5052914;28;20131;-71
2023/08/13 01:46:57;;;;;;;;;;;19.10;99.90;;;;;;5053973;28;19923;-70
2023/08/13 01:49:23;;;;;;;;;;;19.00;99.90;;;;;;5054281;28;20054;-70
2023/08/13 01:51:48;;;;;;;;;;;19.00;99.90;;;;;;5054040;28;19913;-70
2023/08/13 01:54:14;;;;;;;;;;;18.90;99.90;;;;;;5053728;28;19919;-70
2023/08/13 01:56:39;;;;;;;;;;;18.90;99.90;;;;;;5052959;28;19909;-71
2023/08/13 01:59:05;;;;;;;;;;;18.90;99.90;;;;;;5053742;28;19920;-70
2023/08/13 02:01:30;;;;;;;;;;;18.90;99.90;;;;;;5053701;28;20338;-70
2023/08/13 02:03:56;;;;;;;;;;;18.80;99.90;;;;;;5053235;28;20003;-71
2023/08/13 02:06:22;;;;;;;;;;;18.80;99.90;;;;;;5053571;28;19920;-70
2023/08/13 02:08:48;;;;;;;;;;;18.90;99.90;;;;;;5053550;28;19939;-70
2023/08/13 02:11:13;;;;;;;;;;;18.80;99.90;;;;;;5053563;28;19909;-72
2023/08/13 02:13:38;;;;;;;;;;;18.80;99.90;;;;;;5053440;28;19904;-71
2023/08/13 02:16:04;;;;;;;;;;;18.80;99.90;;;;;;5052914;28;19909;-71
2023/08/13 02:18:30;;;;;;;;;;;18.80;99.90;;;;;;5052528;28;19909;-71
2023/08/13 02:20:55;;;;;;;;;;;18.70;99.90;;;;;;5053059;28;19909;-71
2023/08/13 02:23:21;;;;;;;;;;;18.70;99.90;;;;;;5053498;28;19913;-70
2023/08/13 02:25:47;;;;;;;;;;;18.70;99.90;;;;;;5053311;28;19994;-70
2023/08/13 02:28:13;;;;;;;;;;;18.70;99.90;;;;;;5053617;28;20297;-71
2023/08/13 02:30:38;;;;;;;;;;;18.70;99.90;;;;;;5053180;28;19938;-70
2023/08/13 02:33:04;;;;;;;;;;;18.60;99.90;;;;;;5053055;28;19969;-70
2023/08/13 02:35:29;;;;;;;;;;;18.60;99.90;;;;;;5053315;28;19917;-68
2023/08/13 02:37:55;;;;;;;;;;;18.60;99.90;;;;;;5053252;28;19913;-70
2023/08/13 02:40:20;;;;;;;;;;;18.50;99.90;;;;;;5053346;28;19909;-70
2023/08/13 02:42:46;;;;;;;;;;;18.50;99.90;;;;;;5053017;28;19920;-70
2023/08/13 02:45:12;;;;;;;;;;;18.50;99.90;;;;;;5051861;28;19912;-70
2023/08/13 02:47:37;;;;;;;;;;;18.50;99.90;;;;;;5052689;28;19912;-70
2023/08/13 02:50:03;;;;;;;;;;;18.50;99.90;;;;;;5052811;28;19962;-70
2023/08/13 02:52:28;;;;;;;;;;;18.50;99.90;;;;;;5052710;28;20343;-69
2023/08/13 02:54:54;;;;;;;;;;;18.50;99.90;;;;;;5051989;28;20354;-70
2023/08/13 02:57:20;;;;;;;;;;;18.40;99.90;;;;;;5052711;28;20003;-71
2023/08/13 02:59:45;;;;;;;;;;;18.50;99.90;;;;;;5052755;28;19909;-70
2023/08/13 03:02:11;;;;;;;;;;;18.40;99.90;;;;;;5052599;28;20020;-70
2023/08/13 03:04:36;;;;;;;;;;;18.40;99.90;;;;;;5052416;28;20394;-71
2023/08/13 03:07:02;;;;;;;;;;;18.40;99.90;;;;;;5052769;28;19901;-69
2023/08/13 03:09:27;;;;;;;;;;;18.40;99.90;;;;;;5052743;28;19920;-70
2023/08/13 03:11:53;;;;;;;;;;;18.40;99.90;;;;;;5052539;28;20309;-70
2023/08/13 03:14:18;;;;;;;;;;;18.50;99.90;;;;;;5052259;28;20327;-69
2023/08/13 03:16:44;;;;;;;;;;;18.40;99.90;;;;;;5052114;28;19909;-70
2023/08/13 03:19:09;;;;;;;;;;;18.40;99.90;;;;;;5052570;28;19915;-69
2023/08/13 03:21:35;;;;;;;;;;;18.40;99.90;;;;;;5051925;28;19916;-70
2023/08/13 03:24:01;;;;;;;;;;;18.50;99.90;;;;;;5052210;28;19923;-69
2023/08/13 03:26:26;;;;;;;;;;;18.50;99.90;;;;;;5052216;28;20337;-69
2023/08/13 03:28:52;;;;;;;;;;;18.50;99.90;;;;;;5052194;28;19923;-70
2023/08/13 03:31:17;;;;;;;;;;;18.50;99.90;;;;;;5052106;28;20012;-69
2023/08/13 03:33:43;;;;;;;;;;;18.50;99.90;;;;;;5051677;28;19968;-70
2023/08/13 03:36:08;;;;;;;;;;;18.60;99.90;;;;;;5051781;28;20460;-69
2023/08/13 03:38:34;;;;;;;;;;;18.50;99.90;;;;;;5051963;28;19909;-69
2023/08/13 03:40:59;;;;;;;;;;;18.60;99.90;;;;;;5052052;28;19920;-70
2023/08/13 03:43:25;;;;;;;;;;;18.60;99.90;;;;;;5052096;28;19962;-70
2023/08/13 03:45:50;;;;;;;;;;;18.60;99.90;;;;;;5052095;28;19901;-69
2023/08/13 03:48:16;;;;;;;;;;;18.50;99.90;;;;;;5051558;28;19944;-69
2023/08/13 03:50:42;;;;;;;;;;;18.50;99.90;;;;;;5051510;28;19909;-69
2023/08/13 03:53:08;;;;;;;;;;;18.40;99.90;;;;;;5051771;28;19912;-70
2023/08/13 03:55:33;;;;;;;;;;;18.40;99.90;;;;;;5051343;28;19959;-70
2023/08/13 03:57:59;;;;;;;;;;;18.40;99.90;;;;;;5052122;28;19967;-70
2023/08/13 04:00:24;;;;;;;;;;;18.40;99.90;;;;;;5051453;28;19913;-70
2023/08/13 04:02:50;;;;;;;;;;;18.40;99.90;;;;;;5050484;28;19935;-70
2023/08/13 04:05:16;;;;;;;;;;;18.40;99.90;;;;;;5051582;28;19919;-70
2023/08/13 04:07:42;;;;;;;;;;;18.30;99.90;;;;;;5051229;28;19908;-70
2023/08/13 04:10:07;;;;;;;;;;;18.30;99.90;;;;;;5051712;28;19987;-69
2023/08/13 04:12:33;;;;;;;;;;;18.30;99.90;;;;;;5051275;28;19916;-69
2023/08/13 04:14:59;;;;;;;;;;;18.30;99.90;;;;;;5051189;28;19923;-69
2023/08/13 04:17:24;;;;;;;;;;;18.20;99.90;;;;;;5051413;28;20310;-70
2023/08/13 04:19:50;;;;;;;;;;;18.20;99.90;;;;;;5050885;28;20346;-70
2023/08/13 04:22:15;;;;;;;;;;;18.20;99.90;;;;;;5051768;28;20006;-69
2023/08/13 04:24:41;;;;;;;;;;;18.20;99.90;;;;;;5050959;28;19935;-69
2023/08/13 04:27:06;;;;;;;;;;;18.20;99.90;;;;;;5051060;28;19908;-68
2023/08/13 04:29:32;;;;;;;;;;;18.20;99.90;;;;;;5050223;28;19912;-69
2023/08/13 04:31:58;;;;;;;;;;;18.20;99.90;;;;;;5051215;28;19944;-70
2023/08/13 04:34:23;;;;;;;;;;;18.20;99.90;;;;;;5050534;28;20327;-69
2023/08/13 04:36:49;;;;;;;;;;;18.20;99.90;;;;;;5051269;28;19944;-69
2023/08/13 04:39:15;;;;;;;;;;;18.20;99.90;;;;;;5049838;28;20322;-69
2023/08/13 04:41:41;;;;;;;;;;;18.20;99.90;;;;;;5050474;28;20204;-69
2023/08/13 04:44:06;;;;;;;;;;;18.20;99.90;;;;;;5049751;28;19931;-69
2023/08/13 04:46:32;;;;;;;;;;;18.20;99.90;;;;;;5050794;28;19908;-69
2023/08/13 04:48:57;;;;;;;;;;;18.20;99.90;;;;;;5051946;28;19970;-69
2023/08/13 04:51:23;;;;;;;;;;;18.20;99.90;;;;;;5050695;28;19963;-69
2023/08/13 04:53:48;;;;;;;;;;;18.20;99.90;;;;;;5050905;28;20343;-70
2023/08/13 04:56:14;;;;;;;;;;;18.20;99.90;;;;;;5050562;28;19912;-68
2023/08/13 04:58:40;;;;;;;;;;;18.20;99.90;;;;;;5049486;28;19915;-69
2023/08/13 05:01:06;;;;;;;;;;;18.20;99.90;;;;;;5051296;28;19907;-69
2023/08/13 05:03:32;;;;;;;;;;;18.30;99.90;;;;;;5050882;28;20011;-70
2023/08/13 05:05:57;;;;;;;;;;;18.30;99.90;;;;;;5050666;28;19999;-69
2023/08/13 05:08:23;;;;;;;;;;;18.30;99.90;;;;;;5050658;28;20330;-70
2023/08/13 05:10:49;;;;;;;;;;;18.30;99.90;;;;;;5050701;28;20118;-69
2023/08/13 05:13:14;;;;;;;;;;;18.30;99.90;;;;;;5051236;28;19905;-69
2023/08/13 05:15:40;;;;;;;;;;;18.30;99.90;;;;;;5049308;28;19920;-68
2023/08/13 05:18:06;;;;;;;;;;;18.40;99.90;;;;;;5050611;28;19984;-70
2023/08/13 05:20:32;;;;;;;;;;;18.40;99.90;;;;;;5050540;28;20246;-69
2023/08/13 05:22:57;;;;;;;;;;;18.40;99.90;;;;;;5050156;28;19971;-69
2023/08/13 05:25:23;;;;;;;;;;;18.40;99.90;;;;;;5050622;28;19904;-69
2023/08/13 05:27:48;;;;;;;;;;;18.50;99.90;;;;;;5050575;28;20335;-70
2023/08/13 05:30:14;;;;;;;;;;;18.50;99.90;;;;;;5050279;28;19919;-70
2023/08/13 05:32:39;;;;;;;;;;;18.50;99.90;;;;;;5050220;28;20332;-70
2023/08/13 05:35:05;;;;;;;;;;;18.50;99.90;;;;;;5050050;28;19921;-69
2023/08/13 05:37:31;;;;;;;;;;;18.50;99.90;;;;;;5050186;28;20263;-70
2023/08/13 05:39:56;;;;;;;;;;;18.60;99.90;;;;;;5050716;28;20311;-69
2023/08/13 05:42:22;;;;;;;;;;;18.60;99.90;;;;;;5050344;28;20351;-70
2023/08/13 05:44:47;;;;;;;;;;;18.60;99.90;;;;;;5050628;28;19930;-70
2023/08/13 05:47:13;;;;;;;;;;;18.70;99.90;;;;;;5050139;28;19962;-69
2023/08/13 05:49:38;;;;;;;;;;;18.70;99.90;;;;;;5050150;28;19915;-69
2023/08/13 05:52:04;;;;;;;;;;;18.80;99.90;;;;;;5050764;28;20134;-68
2023/08/13 05:54:30;;;;;;;;;;;18.80;99.90;;;;;;5053029;28;20328;-70
2023/08/13 05:56:55;;;;;;;;;;;18.90;99.90;;;;;;5053866;28;19923;-70
2023/08/13 05:59:21;;;;;;;;;;;19.00;99.90;;;;;;5053845;28;19965;-70
2023/08/13 06:01:46;;;;;;;;;;;19.10;99.90;;;;;;5053669;28;20007;-69
2023/08/13 06:04:12;;;;;;;;;;;19.10;99.90;;;;;;5054084;28;19919;-71
2023/08/13 06:06:37;;;;;;;;;;;19.20;99.90;;;;;;5053695;28;20263;-70
2023/08/13 06:09:03;;;;;;;;;;;19.20;99.90;;;;;;5053390;28;19970;-70
2023/08/13 06:11:29;;;;;;;;;;;19.30;99.90;;;;;;5053577;28;19920;-70
2023/08/13 06:13:55;;;;;;;;;;;19.30;99.90;;;;;;5052521;28;19909;-71
2023/08/13 06:16:20;;;;;;;;;;;19.40;99.90;;;;;;5054149;28;19916;-70
2023/08/13 06:18:46;;;;;;;;;;;19.40;99.90;;;;;;5053559;28;19920;-70
2023/08/13 06:21:12;;;;;;;;;;;19.50;99.90;;;;;;5053443;28;20346;-70
2023/08/13 06:23:38;;;;;;;;;;;19.50;99.90;;;;;;5053399;28;19995;-70
2023/08/13 06:26:04;;;;;;;;;;;19.60;99.90;;;;;;5052105;28;20382;-70
2023/08/13 06:28:30;;;;;;;;;;;19.60;99.90;;;;;;5053260;28;20059;-71
2023/08/13 06:30:55;;;;;;;;;;;19.70;99.90;;;;;;5053796;28;19901;-71
2023/08/13 06:33:21;;;;;;;;;;;19.70;99.90;;;;;;5052825;28;19924;-71
2023/08/13 06:35:47;;;;;;;;;;;19.80;99.90;;;;;;5051972;28;20286;-71
2023/08/13 06:38:13;;;;;;;;;;;19.80;99.90;;;;;;5053169;28;19985;-71
2023/08/13 06:40:38;;;;;;;;;;;19.80;99.90;;;;;;5053294;28;19958;-71
2023/08/13 06:43:04;;;;;;;;;;;19.90;99.90;;;;;;5053427;28;19904;-71
2023/08/13 06:45:29;;;;;;;;;;;19.90;99.90;;;;;;5052947;28;19991;-71
2023/08/13 06:47:56;;;;;;;;;;;20.00;99.90;;;;;;5053075;28;19923;-72
2023/08/13 06:50:21;;;;;;;;;;;20.00;99.90;;;;;;5052821;28;19912;-72
2023/08/13 06:52:47;;;;;;;;;;;20.10;99.90;;;;;;5052899;28;19913;-72
2023/08/13 06:55:12;;;;;;;;;;;20.10;99.90;;;;;;5052919;28;19913;-71
2023/08/13 06:57:38;;;;;;;;;;;20.10;99.90;;;;;;5052623;28;19908;-71
2023/08/13 07:00:05;;;;;;;;;;;20.10;99.90;;;;;;5052734;28;19909;-70
2023/08/13 07:02:31;;;;;;;;;;;20.10;99.90;;;;;;5052433;28;19916;-70
2023/08/13 07:04:56;;;;;;;;;;;20.20;99.90;;;;;;5051878;28;19908;-71
2023/08/13 07:07:22;;;;;;;;;;;20.20;99.90;;;;;;5052761;28;19916;-71
2023/08/13 07:09:48;;;;;;;;;;;20.30;99.90;;;;;;5052538;28;20043;-71
2023/08/13 07:12:13;;;;;;;;;;;20.40;99.90;;;;;;5052401;28;19909;-71
2023/08/13 07:14:39;;;;;;;;;;;20.40;99.90;;;;;;5052252;28;19962;-71
2023/08/13 07:17:05;;;;;;;;;;;20.40;99.90;;;;;;5052467;28;19920;-72
2023/08/13 07:19:32;;;;;;;;;;;20.50;99.90;;;;;;5052199;28;19919;-72
2023/08/13 07:21:58;;;;;;;;;;;20.60;99.90;;;;;;5052617;28;19951;-71
2023/08/13 07:24:23;;;;;;;;;;;20.60;99.90;;;;;;5052400;28;20001;-70
2023/08/13 07:26:49;;;;;;;;;;;20.60;99.90;;;;;;5052098;28;19920;-71
2023/08/13 07:29:15;;;;;;;;;;;20.70;99.90;;;;;;5050989;28;19908;-72
2023/08/13 07:31:41;;;;;;;;;;;20.80;99.90;;;;;;5052288;28;19904;-70
2023/08/13 07:34:06;;;;;;;;;;;20.80;99.90;;;;;;5052184;28;20007;-79
2023/08/13 07:36:32;;;;;;;;;;;20.90;99.90;;;;;;5050813;28;19916;-76
2023/08/13 07:38:58;;;;;;;;;;;20.90;99.90;;;;;;5052289;28;19917;-75
2023/08/13 07:41:23;;;;;;;;;;;21.00;99.90;;;;;;5051944;28;19997;-76
2023/08/13 07:43:49;;;;;;;;;;;21.10;99.90;;;;;;5050946;28;19936;-77
2023/08/13 07:46:14;;;;;;;;;;;21.20;99.90;;;;;;5052133;28;20335;-74
2023/08/13 07:48:40;;;;;;;;;;;21.20;99.90;;;;;;5050526;28;19915;-73
2023/08/13 07:51:06;;;;;;;;;;;21.30;99.90;;;;;;5050605;28;19934;-73
2023/08/13 07:53:31;;;;;;;;;;;21.40;99.90;;;;;;5050493;28;19925;-74
2023/08/13 07:55:57;;;;;;;;;;;21.40;99.90;;;;;;5051385;28;19920;-73
2023/08/13 07:58:22;;;;;;;;;;;21.40;99.90;;;;;;5050998;28;19908;-73
2023/08/13 08:00:48;;;;;;;;;;;21.30;99.90;;;;;;5052126;28;19909;-74
2023/08/13 08:03:14;;;;;;;;;;;21.40;99.90;;;;;;5050250;28;19908;-75
2023/08/13 08:05:41;;;;;;;;;;;21.40;99.90;;;;;;5050278;28;20253;-73
2023/08/13 08:08:06;;;;;;;;;;;21.60;99.90;;;;;;5051157;28;19919;-73
2023/08/13 08:10:32;;;;;;;;;;;21.70;99.90;;;;;;5050011;28;20372;-72
2023/08/13 08:12:57;;;;;;;;;;;22.00;99.70;;;;;;5051825;28;20031;-71
2023/08/13 08:15:23;;;;;;;;;;;22.10;99.40;;;;;;5049903;28;20374;-73
2023/08/13 08:17:49;;;;;;;;;;;22.10;99.00;;;;;;5050196;28;19908;-72
2023/08/13 08:20:14;;;;;;;;;;;22.30;99.00;;;;;;5050950;28;19913;-72
2023/08/13 08:22:40;;;;;;;;;;;22.40;98.70;;;;;;5049823;28;20262;-72
2023/08/13 08:25:09;;;;;;;;;;;22.80;98.50;;;;;;5051364;28;20457;-72
2023/08/13 08:27:35;;;;;;;;;;;23.20;97.40;;;;;;5049703;28;19909;-72
2023/08/13 08:30:01;;;;;;;;;;;23.60;96.70;;;;;;5051225;28;20294;-72
2023/08/13 08:32:27;;;;;;;;;;;24.10;96.70;;;;;;5049671;28;19957;-72
2023/08/13 08:34:53;;;;;;;;;;;24.90;95.60;;;;;;5049391;28;19925;-74
2023/08/13 08:37:18;;;;;;;;;;;25.70;94.40;;;;;;5050154;28;20363;-74
2023/08/13 08:39:44;;;;;;;;;;;25.90;94.20;;;;;;5050701;28;20042;-74
2023/08/13 08:42:11;;;;;;;;;;;26.00;93.70;;;;;;5050831;28;19908;-71
2023/08/13 08:44:40;;;;;;;;;;;26.40;93.10;;;;;;5050847;28;19909;-71
2023/08/13 08:47:06;;;;;;;;;;;27.40;92.70;;;;;;5050759;28;19909;-72
2023/08/13 08:49:33;;;;;;;;;;;27.80;91.20;;;;;;5049596;28;19919;-73
2023/08/13 08:51:58;;;;;;;;;;;28.40;90.20;;;;;;5051365;28;20207;-71
2023/08/13 08:54:24;;;;;;;;;;;28.50;89.70;;;;;;5050644;28;19908;-72
2023/08/13 08:56:50;;;;;;;;;;;29.00;88.90;;;;;;5050614;28;20323;-73
2023/08/13 08:59:15;;;;;;;;;;;29.10;86.30;;;;;;5050645;28;19932;-72
2023/08/13 09:01:41;;;;;;;;;;;29.70;83.80;;;;;;5050443;28;19909;-71
2023/08/13 09:04:07;;;;;;;;;;;29.90;83.40;;;;;;5051286;28;19947;-73
2023/08/13 09:07:08;;;;;;;;;;;29.40;83.10;;;;;;5050772;28;19932;-73
2023/08/13 09:09:34;;;;;;;;;;;29.90;82.10;;;;;;5028364;28;20154;-75
2023/08/13 09:12:00;;;;;;;;;;;31.40;79.60;;;;;;5046287;28;20055;-69
2023/08/13 09:14:26;;;;;;;;;;;30.70;76.80;;;;;;5051760;28;19913;-72
2023/08/13 09:16:52;;;;;;;;;;;31.20;77.70;;;;;;5050778;28;19920;-71
2023/08/13 09:19:18;;;;;;;;;;;31.60;78.40;;;;;;5051057;28;19912;-70
2023/08/13 09:21:54;;;;;;;;;;;32.90;75.50;;;;;;5048732;28;19919;-70
2023/08/13 09:24:30;;;;;;;;;;;32.80;73.80;;;;;;5050426;28;19909;-70
2023/08/13 09:26:56;;;;;;;;;;;33.60;75.00;;;;;;5049239;28;20212;-70
2023/08/13 09:29:21;;;;;;;;;;;33.90;68.50;;;;;;5053734;28;19947;-70
2023/08/13 09:31:47;;;;;;;;;;;34.30;68.40;;;;;;5054036;28;19908;-70
2023/08/13 09:34:12;;;;;;;;;;;33.50;68.60;;;;;;5054560;28;19921;-69
2023/08/13 09:36:38;;;;;;;;;;;35.10;68.40;;;;;;5054581;28;19917;-70
2023/08/13 09:39:04;;;;;;;;;;;35.50;67.50;;;;;;5052884;28;20307;-69
2023/08/13 09:41:29;;;;;;;;;;;35.40;62.70;;;;;;5054097;28;20219;-69
2023/08/13 09:43:59;;;;;;;;;;;34.00;65.40;;;;;;5053938;28;20250;-71
2023/08/13 09:46:25;;;;;;;;;;;35.40;64.20;;;;;;5053843;28;19908;-71
2023/08/13 09:48:53;;;;;;;;;;;35.40;61.70;;;;;;5053454;28;20346;-70
2023/08/13 09:51:20;;;;;;;;;;;35.90;60.60;;;;;;5053838;28;19996;-70
2023/08/13 09:53:49;;;;;;;;;;;36.40;59.40;;;;;;5052654;28;19908;-70
2023/08/13 09:56:16;;;;;;;;;;;34.60;61.40;;;;;;5053576;28;19955;-69
2023/08/13 09:58:41;;;;;;;;;;;34.00;61.00;;;;;;5053762;28;19936;-70
2023/08/13 10:01:07;;;;;;;;;;;34.40;62.80;;;;;;5053908;28;19951;-70
2023/08/13 10:03:33;;;;;;;;;;;34.40;62.40;;;;;;5053616;28;20326;-71
2023/08/13 10:05:59;;;;;;;;;;;34.40;60.90;;;;;;5053450;28;20015;-70
2023/08/13 10:08:25;;;;;;;;;;;34.00;61.70;;;;;;5053721;28;19909;-70
2023/08/13 10:10:51;;;;;;;;;;;33.10;62.80;;;;;;5053449;28;20307;-70
2023/08/13 10:13:17;;;;;;;;;;;33.80;62.80;;;;;;5054172;28;19909;-70
2023/08/13 10:15:43;;;;;;;;;;;33.90;60.60;;;;;;5052202;28;20355;-70
2023/08/13 10:18:10;;;;;;;;;;;33.80;61.70;;;;;;5053324;28;19908;-70
2023/08/13 10:20:35;;;;;;;;;;;32.60;62.40;;;;;;5052388;28;19908;-70
2023/08/13 10:23:01;;;;;;;;;;;32.40;64.30;;;;;;5053465;28;19915;-70
2023/08/13 10:25:32;;;;;;;;;;;32.30;64.70;;;;;;5053384;28;20339;-70
2023/08/13 10:27:58;;;;;;;;;;;32.70;64.00;;;;;;5053990;28;19905;-71
2023/08/13 10:30:24;;;;;;;;;;;33.20;63.00;;;;;;5052134;28;19915;-70
2023/08/13 10:32:55;;;;;;;;;;;32.90;63.40;;;;;;5052381;28;19992;-69
2023/08/13 10:35:22;;;;;;;;;;;32.60;63.10;;;;;;5052994;28;20261;-70
2023/08/13 10:37:52;;;;;;;;;;;32.60;63.50;;;;;;5052996;28;20152;-69
2023/08/13 10:40:19;;;;;;;;;;;32.20;64.60;;;;;;5052982;28;19927;-69
2023/08/13 10:42:45;;;;;;;;;;;32.10;65.10;;;;;;5053315;28;19920;-70
2023/08/13 10:45:13;;;;;;;;;;;31.60;64.90;;;;;;5053212;28;19909;-70
2023/08/13 10:47:49;;;;;;;;;;;31.70;66.20;;;;;;5053075;28;19909;-69
2023/08/13 10:50:17;;;;;;;;;;;31.50;65.70;;;;;;5052984;28;20269;-69
2023/08/13 10:52:45;;;;;;;;;;;30.90;66.50;;;;;;5051431;28;19919;-70
2023/08/13 10:55:11;;;;;;;;;;;30.70;66.90;;;;;;5052850;28;19926;-71
2023/08/13 10:57:38;;;;;;;;;;;30.10;67.90;;;;;;5052520;28;19986;-71
2023/08/13 11:00:04;;;;;;;;;;;29.70;68.10;;;;;;5052596;28;19962;-70
2023/08/13 11:02:32;;;;;;;;;;;28.90;69.60;;;;;;5052931;28;19908;-69
2023/08/13 11:04:58;;;;;;;;;;;28.80;70.90;;;;;;5051591;28;19916;-70
2023/08/13 11:07:23;;;;;;;;;;;28.60;71.50;;;;;;5052600;28;19916;-70
2023/08/13 11:09:49;;;;;;;;;;;28.70;71.60;;;;;;5051814;28;19908;-70
2023/08/13 11:12:15;;;;;;;;;;;28.40;72.10;;;;;;5052531;28;19920;-71
2023/08/13 11:14:40;;;;;;;;;;;28.70;72.10;;;;;;5052556;28;20326;-69
2023/08/13 11:17:06;;;;;;;;;;;28.60;71.90;;;;;;5052134;28;19909;-70
2023/08/13 11:19:32;;;;;;;;;;;28.50;72.20;;;;;;5052613;28;19908;-70
2023/08/13 11:21:58;;;;;;;;;;;28.20;72.30;;;;;;5053787;28;19920;-69
2023/08/13 11:24:24;;;;;;;;;;;28.20;72.80;;;;;;5051073;28;19908;-69
2023/08/13 11:26:50;;;;;;;;;;;27.90;73.40;;;;;;5052021;28;19920;-70
2023/08/13 11:29:22;;;;;;;;;;;27.80;73.70;;;;;;5051894;28;20362;-69
2023/08/13 11:31:48;;;;;;;;;;;27.30;75.10;;;;;;5051856;28;20065;-70
2023/08/13 11:34:14;;;;;;;;;;;27.10;75.80;;;;;;5052076;28;20003;-69
2023/08/13 11:36:40;;;;;;;;;;;27.50;75.50;;;;;;5051951;28;19913;-68
2023/08/13 11:39:05;;;;;;;;;;;27.40;75.10;;;;;;5052143;28;19909;-69
2023/08/13 11:41:31;;;;;;;;;;;27.60;75.40;;;;;;5051854;28;20449;-70
2023/08/13 11:43:59;;;;;;;;;;;27.60;75.00;;;;;;5051932;28;19924;-72
2023/08/13 11:46:24;;;;;;;;;;;27.90;75.40;;;;;;5051221;28;19904;-70
2023/08/13 11:48:54;;;;;;;;;;;27.90;75.50;;;;;;5052114;28;19908;-69
2023/08/13 11:51:24;;;;;;;;;;;28.00;75.20;;;;;;5051887;28;19919;-70
2023/08/13 11:53:50;;;;;;;;;;;28.10;74.80;;;;;;5051785;28;20406;-70
2023/08/13 11:56:16;;;;;;;;;;;28.30;74.90;;;;;;5051483;28;19913;-69
2023/08/13 11:58:41;;;;;;;;;;;28.50;74.70;;;;;;5050411;28;19905;-70
2023/08/13 12:01:09;;;;;;;;;;;28.60;74.20;;;;;;5050671;28;20232;-70
2023/08/13 12:03:35;;;;;;;;;;;28.50;73.40;;;;;;5051335;28;19908;-70
2023/08/13 12:06:01;;;;;;;;;;;28.40;73.90;;;;;;5051209;28;19979;-69
2023/08/13 12:08:28;;;;;;;;;;;28.30;74.50;;;;;;5051445;28;19944;-70
2023/08/13 12:10:53;;;;;;;;;;;28.30;74.40;;;;;;5051293;28;19924;-69
2023/08/13 12:13:19;;;;;;;;;;;28.40;74.40;;;;;;5051534;28;19904;-69
2023/08/13 12:15:45;;;;;;;;;;;28.30;73.50;;;;;;5050990;28;19970;-70
2023/08/13 12:18:10;;;;;;;;;;;28.30;73.10;;;;;;5050951;28;19909;-70
2023/08/13 12:20:36;;;;;;;;;;;28.00;73.70;;;;;;5051109;28;19974;-69
2023/08/13 12:23:02;;;;;;;;;;;28.00;73.70;;;;;;5050981;28;19991;-71
2023/08/13 12:25:29;;;;;;;;;;;27.90;74.70;;;;;;5051205;28;20255;-69
2023/08/13 12:27:54;;;;;;;;;;;27.80;75.00;;;;;;5051557;28;19905;-70
2023/08/13 12:30:20;;;;;;;;;;;27.70;76.10;;;;;;5051036;28;20319;-70
2023/08/13 12:32:46;;;;;;;;;;;27.70;75.70;;;;;;5050667;28;19909;-69
2023/08/13 12:35:12;;;;;;;;;;;27.40;74.90;;;;;;5050509;28;20405;-69
2023/08/13 12:37:37;;;;;;;;;;;27.20;75.30;;;;;;5051331;28;20011;-69
2023/08/13 12:40:04;;;;;;;;;;;27.20;75.70;;;;;;5050128;28;19991;-69
2023/08/13 12:42:29;;;;;;;;;;;27.10;76.60;;;;;;5050986;28;20346;-70
2023/08/13 12:44:55;;;;;;;;;;;27.10;76.10;;;;;;5051109;28;19938;-70
2023/08/13 12:47:20;;;;;;;;;;;27.00;76.60;;;;;;5049519;28;19920;-70
2023/08/13 12:49:46;;;;;;;;;;;27.00;76.70;;;;;;5050472;28;19920;-69
2023/08/13 12:52:12;;;;;;;;;;;27.10;76.90;;;;;;5051081;28;20046;-70
2023/08/13 12:54:38;;;;;;;;;;;27.00;77.60;;;;;;5050743;28;19912;-70
2023/08/13 12:57:04;;;;;;;;;;;27.00;77.40;;;;;;5050571;28;19952;-70
2023/08/13 12:59:29;;;;;;;;;;;26.90;77.80;;;;;;5050657;28;20380;-69
2023/08/13 13:01:55;;;;;;;;;;;27.00;77.70;;;;;;5049408;28;20008;-70
2023/08/13 13:04:20;;;;;;;;;;;27.00;77.70;;;;;;5056746;28;20268;-70
2023/08/13 13:06:46;;;;;;;;;;;27.00;77.60;;;;;;5057123;28;19913;-69
2023/08/13 13:09:11;;;;;;;;;;;26.90;78.30;;;;;;5057106;28;19913;-70
2023/08/13 13:11:37;;;;;;;;;;;26.90;78.30;;;;;;5056980;28;19919;-69
2023/08/13 13:14:02;;;;;;;;;;;26.80;79.10;;;;;;5056196;28;20345;-70
2023/08/13 13:16:28;;;;;;;;;;;26.70;79.60;;;;;;5057056;28;20329;-69
2023/08/13 13:18:53;;;;;;;;;;;26.60;79.80;;;;;;5056483;28;20313;-71
2023/08/13 13:21:19;;;;;;;;;;;26.60;80.40;;;;;;5057362;28;20343;-69
2023/08/13 13:23:45;;;;;;;;;;;26.60;80.30;;;;;;5056890;28;20436;-69
2023/08/13 13:26:10;;;;;;;;;;;26.60;79.80;;;;;;5056829;28;19909;-70
2023/08/13 13:28:38;;;;;;;;;;;26.60;79.80;;;;;;5057225;28;19904;-70
2023/08/13 13:31:03;;;;;;;;;;;26.70;80.30;;;;;;5057364;28;20170;-69
2023/08/13 13:33:30;;;;;;;;;;;26.70;80.30;;;;;;5056787;28;19927;-71
2023/08/13 13:35:56;;;;;;;;;;;26.60;81.20;;;;;;5056890;28;19940;-71
2023/08/13 13:38:22;;;;;;;;;;;26.50;81.30;;;;;;5055572;28;20334;-69
2023/08/13 13:40:47;;;;;;;;;;;26.60;81.80;;;;;;5056676;28;19919;-69
2023/08/13 13:43:13;;;;;;;;;;;26.60;82.10;;;;;;5057127;28;19912;-69
2023/08/13 13:45:38;;;;;;;;;;;26.60;81.70;;;;;;5056825;28;20188;-70
2023/08/13 13:48:04;;;;;;;;;;;26.60;81.10;;;;;;5056831;28;19912;-70
2023/08/13 13:50:30;;;;;;;;;;;26.60;80.60;;;;;;5056627;28;20009;-70
2023/08/13 13:52:55;;;;;;;;;;;26.50;80.40;;;;;;5056481;28;19995;-70
2023/08/13 13:55:21;;;;;;;;;;;26.50;80.20;;;;;;5057094;28;20389;-70
2023/08/13 13:57:47;;;;;;;;;;;26.50;80.40;;;;;;5056737;28;19908;-70
2023/08/13 14:00:13;;;;;;;;;;;26.50;80.40;;;;;;5056278;28;20225;-70
2023/08/13 14:02:38;;;;;;;;;;;26.60;80.50;;;;;;5056579;28;19908;-70
2023/08/13 14:05:04;;;;;;;;;;;26.60;80.60;;;;;;5056351;28;19951;-70
2023/08/13 14:07:30;;;;;;;;;;;26.40;80.20;;;;;;5056838;28;20007;-69
2023/08/13 14:09:55;;;;;;;;;;;26.30;80.20;;;;;;5057025;28;20238;-69